Time;durP1;ratioP1;P1;durP2;ratioP2;P2;SDS_P1;SDS_P2;PMS_P1;PMS_P2;Temp;Humidity;BMP_temperature;BMP_pressure;BME280_temperature;BME280_humidity;BME280_pressure;Samples;Min_cycle;Max_cycle;Signal;HPM_P1;HPM_P2
2022/07/24 00:00:33;;;;;;;13.90;8.90;;;;;;;-145.69;100.00;71181.53;5076139;28;20206;-77
2022/07/24 00:02:59;;;;;;;13.05;8.38;;;;;;;-145.69;100.00;71167.59;5075590;28;20565;-77
2022/07/24 00:05:26;;;;;;;12.75;8.43;;;;;;;-145.69;100.00;71157.66;5075807;28;20260;-77
2022/07/24 00:07:52;;;;;;;13.10;8.35;;;;;;;-145.69;100.00;71163.63;5075458;28;20201;-78
2022/07/24 00:10:19;;;;;;;10.80;7.63;;;;;;;-145.69;100.00;71169.59;5075248;28;20530;-77
2022/07/24 00:12:47;;;;;;;13.77;8.27;;;;;;;-145.69;100.00;71179.53;5075618;28;20195;-77
2022/07/24 00:15:13;;;;;;;14.23;9.30;;;;;;;-145.69;100.00;71191.47;5075217;28;20202;-77
2022/07/24 00:17:40;;;;;;;13.27;8.48;;;;;;;-145.69;100.00;71181.53;5075271;28;20201;-77
2022/07/24 00:20:10;;;;;;;13.30;8.75;;;;;;;-145.69;100.00;71181.53;5075174;28;20199;-77
2022/07/24 00:22:36;;;;;;;12.65;8.57;;;;;;;-145.69;100.00;71193.47;5075386;28;20281;-78
2022/07/24 00:25:04;;;;;;;15.00;8.80;;;;;;;-145.69;100.00;71193.47;5075470;28;20210;-78
2022/07/24 00:27:30;;;;;;;15.43;8.95;;;;;;;-145.69;100.00;71179.53;5075483;28;20205;-78
2022/07/24 00:30:01;;;;;;;14.95;9.02;;;;;;;-145.69;100.00;71171.56;5059681;28;20207;-77
2022/07/24 00:32:27;;;;;;;19.10;9.10;;;;;;;-145.69;100.00;71175.56;5055308;28;20278;-78
2022/07/24 00:34:54;;;;;;;13.63;8.68;;;;;;;-145.69;100.00;71181.53;5055007;28;20230;-77
2022/07/24 00:37:20;;;;;;;16.45;8.82;;;;;;;-145.69;100.00;71181.53;5055015;28;20203;-78
2022/07/24 00:39:48;;;;;;;11.15;8.30;;;;;;;-145.69;100.00;71181.53;5055030;28;20654;-76
2022/07/24 00:42:14;;;;;;;14.70;8.82;;;;;;;-145.69;100.00;71181.53;5070013;28;20233;-77
2022/07/24 00:44:41;;;;;;;13.77;8.70;;;;;;;-145.69;100.00;71187.50;5075084;28;20217;-77
2022/07/24 00:47:09;;;;;;;15.30;8.43;;;;;;;-145.69;100.00;71191.47;5075039;28;20203;-77
2022/07/24 00:49:35;;;;;;;12.77;8.90;;;;;;;-145.69;100.00;71197.44;5074720;28;20230;-77
2022/07/24 00:52:02;;;;;;;13.93;7.95;;;;;;;-145.69;100.00;71215.34;5074720;28;20205;-77
2022/07/24 00:54:28;;;;;;;17.73;9.02;;;;;;;-145.69;100.00;71235.25;5074725;28;20218;-77
2022/07/24 00:56:55;;;;;;;14.25;9.52;;;;;;;-145.69;100.00;71247.19;5074979;28;20207;-77
2022/07/24 00:59:23;;;;;;;18.38;9.43;;;;;;;-145.69;100.00;71255.16;5074787;28;20195;-78
2022/07/24 01:01:50;;;;;;;15.60;9.90;;;;;;;-145.69;100.00;71279.03;5074662;28;20199;-77
2022/07/24 01:04:19;;;;;;;15.75;10.02;;;;;;;-145.69;100.00;71279.03;5074631;28;20210;-77
2022/07/24 01:06:47;;;;;;;21.17;9.73;;;;;;;-145.69;100.00;71290.97;5074620;28;20203;-78
2022/07/24 01:09:13;;;;;;;14.02;9.50;;;;;;;-145.69;100.00;71279.03;5074384;28;20191;-77
2022/07/24 01:11:40;;;;;;;13.48;9.77;;;;;;;-145.69;100.00;71269.06;5074546;28;20229;-77
2022/07/24 01:14:07;;;;;;;18.17;10.32;;;;;;;-145.69;100.00;71261.13;5073976;28;20238;-77
2022/07/24 01:16:34;;;;;;;15.63;9.52;;;;;;;-145.69;100.00;71271.06;5074300;28;20195;-78
2022/07/24 01:19:01;;;;;;;15.82;10.05;;;;;;;-145.69;100.00;71275.03;5073874;28;20244;-77
2022/07/24 01:21:29;;;;;;;14.88;9.75;;;;;;;-145.69;100.00;71290.97;5074481;28;20202;-77
2022/07/24 01:23:55;;;;;;;15.43;9.52;;;;;;;-145.69;100.00;71310.84;5074157;28;20226;-77
2022/07/24 01:26:22;;;;;;;17.13;9.63;;;;;;;-145.69;100.00;71314.84;5073997;28;20684;-77
2022/07/24 01:28:48;;;;;;;16.35;10.93;;;;;;;-145.69;100.00;71308.88;5070366;28;20195;-77
2022/07/24 01:31:15;;;;;;;15.48;11.10;;;;;;;-145.69;100.00;71306.88;5053125;28;20443;-78
2022/07/24 01:33:41;;;;;;;19.55;10.27;;;;;;;-145.69;100.00;71312.84;5053855;28;20250;-77
2022/07/24 01:36:08;;;;;;;14.50;10.40;;;;;;;-145.69;100.00;71328.78;5053935;28;20668;-78
2022/07/24 01:38:36;;;;;;;16.40;10.20;;;;;;;-145.69;100.00;71334.75;5053899;28;20658;-77
2022/07/24 01:41:03;;;;;;;17.33;10.00;;;;;;;-145.69;100.00;71338.72;5053864;28;20204;-77
2022/07/24 01:43:29;;;;;;;20.95;11.02;;;;;;;-145.69;100.00;71358.63;5062874;28;20196;-77
2022/07/24 01:45:56;;;;;;;15.30;9.90;;;;;;;-145.69;100.00;71370.56;5073698;28;20199;-77
2022/07/24 01:48:22;;;;;;;14.93;9.38;;;;;;;-145.69;100.00;71380.50;5073396;28;20654;-77
2022/07/24 01:50:49;;;;;;;17.42;11.05;;;;;;;-145.69;100.00;71392.44;5073863;28;20550;-77
2022/07/24 01:53:15;;;;;;;19.00;11.35;;;;;;;-145.69;100.00;71394.44;5073462;28;20206;-77
2022/07/24 01:55:43;;;;;;;18.38;10.85;;;;;;;-145.69;100.00;71396.44;5073624;28;20238;-77
2022/07/24 01:58:10;;;;;;;15.32;10.88;;;;;;;-145.69;100.00;71390.47;5073440;28;20665;-77
2022/07/24 02:00:36;;;;;;;16.00;10.98;;;;;;;-145.69;100.00;71374.53;5073384;28;20198;-77
2022/07/24 02:03:02;;;;;;;18.25;11.05;;;;;;;-145.69;100.00;71370.56;5073312;28;20203;-76
2022/07/24 02:05:29;;;;;;;14.20;10.48;;;;;;;-145.69;100.00;71358.63;5073538;28;20206;-76
2022/07/24 02:07:58;;;;;;;19.20;10.75;;;;;;;-145.69;100.00;71356.63;5073109;28;20289;-77
2022/07/24 02:10:25;;;;;;;13.65;9.73;;;;;;;-145.69;100.00;71350.66;5072792;28;20198;-77
2022/07/24 02:12:53;;;;;;;13.65;9.63;;;;;;;-145.69;100.00;71336.72;5073389;28;20195;-77
2022/07/24 02:15:20;;;;;;;15.25;9.45;;;;;;;-145.69;100.00;71342.69;5073058;28;20226;-77
2022/07/24 02:17:47;;;;;;;14.38;9.07;;;;;;;-145.69;100.00;71354.63;5073614;28;20202;-77
2022/07/24 02:20:13;;;;;;;15.98;10.05;;;;;;;-145.69;100.00;71362.59;5072968;28;20234;-77
2022/07/24 02:22:40;;;;;;;16.05;9.48;;;;;;;-145.69;100.00;71366.56;5073360;28;20202;-76
2022/07/24 02:25:08;;;;;;;18.25;9.85;;;;;;;-145.69;100.00;71358.63;5073156;28;20202;-77
2022/07/24 02:27:34;;;;;;;15.52;9.93;;;;;;;-145.69;100.00;71366.56;5073118;28;20203;-77
2022/07/24 02:30:02;;;;;;;14.13;9.90;;;;;;;-145.69;100.00;71370.56;5072973;28;20673;-77
2022/07/24 02:32:28;;;;;;;14.95;10.55;;;;;;;-145.69;100.00;71362.59;5069761;28;20195;-77
2022/07/24 02:34:55;;;;;;;14.00;9.55;;;;;;;-145.69;100.00;71360.59;5072990;28;20222;-77
2022/07/24 02:37:21;;;;;;;15.50;9.10;;;;;;;-145.69;100.00;71362.59;5072977;28;20205;-77
2022/07/24 02:39:48;;;;;;;13.60;9.48;;;;;;;-145.69;100.00;71362.59;5072571;28;20202;-77
2022/07/24 02:42:14;;;;;;;14.43;9.15;;;;;;;-145.69;100.00;71368.56;5072876;28;20202;-77
2022/07/24 02:44:41;;;;;;;14.23;9.30;;;;;;;-145.69;100.00;71388.47;5073059;28;20198;-76
2022/07/24 02:47:09;;;;;;;13.30;9.02;;;;;;;-145.69;100.00;71402.41;5072687;28;20680;-77
2022/07/24 02:49:36;;;;;;;19.42;8.80;;;;;;;-145.69;100.00;71412.34;5072565;28;20709;-77
2022/07/24 02:52:03;;;;;;;12.27;8.65;;;;;;;-145.69;100.00;71426.28;5072889;28;20249;-77
2022/07/24 02:54:29;;;;;;;15.50;10.02;;;;;;;-145.69;100.00;71436.22;5072704;28;20234;-77
2022/07/24 02:56:55;;;;;;;15.90;9.88;;;;;;;-145.69;100.00;71422.28;5072757;28;20200;-77
2022/07/24 02:59:22;;;;;;;21.85;10.95;;;;;;;-145.69;100.00;71412.34;5072653;28;20672;-77
2022/07/24 03:01:48;;;;;;;16.55;10.25;;;;;;;-145.69;100.00;71412.34;5072635;28;20665;-77
2022/07/24 03:04:16;;;;;;;15.95;9.68;;;;;;;-145.69;100.00;71394.44;5072953;28;20206;-77
2022/07/24 03:06:43;;;;;;;16.27;10.60;;;;;;;-145.69;100.00;71386.47;5072868;28;20202;-77
2022/07/24 03:09:10;;;;;;;13.55;9.32;;;;;;;-145.69;100.00;71410.34;5072376;28;20202;-77
2022/07/24 03:11:36;;;;;;;14.85;9.13;;;;;;;-145.69;100.00;71430.25;5072589;28;20561;-77
2022/07/24 03:14:03;;;;;;;13.07;9.00;;;;;;;-145.69;100.00;71430.25;5072334;28;20684;-76
2022/07/24 03:16:29;;;;;;;12.45;9.48;;;;;;;-145.69;100.00;71436.22;5072830;28;20560;-77
2022/07/24 03:18:56;;;;;;;20.98;10.07;;;;;;;-145.69;100.00;71430.25;5072746;28;20202;-76
2022/07/24 03:21:24;;;;;;;17.17;10.90;;;;;;;-145.69;100.00;71426.28;5072630;28;20194;-77
2022/07/24 03:23:50;;;;;;;21.17;11.50;;;;;;;-145.69;100.00;71428.25;5072520;28;20207;-77
2022/07/24 03:26:17;;;;;;;15.30;10.18;;;;;;;-145.69;100.00;71432.25;5072446;28;20207;-77
2022/07/24 03:28:43;;;;;;;12.85;9.48;;;;;;;-145.69;100.00;71434.22;5072575;28;20207;-79
2022/07/24 03:31:10;;;;;;;14.70;10.10;;;;;;;-145.69;100.00;71426.28;5072574;28;20282;-75
2022/07/24 03:33:36;;;;;;;14.25;9.60;;;;;;;-145.69;100.00;71446.16;5076280;28;20198;-76
2022/07/24 03:36:03;;;;;;;16.95;10.25;;;;;;;-145.69;100.00;71442.19;5076202;28;20264;-77
2022/07/24 03:38:31;;;;;;;16.10;10.70;;;;;;;-145.69;100.00;71438.22;5075252;28;20198;-77
2022/07/24 03:40:57;;;;;;;16.33;11.45;;;;;;;-145.69;100.00;71442.19;5076590;28;20201;-76
2022/07/24 03:43:24;;;;;;;20.35;10.20;;;;;;;-145.69;100.00;71450.16;5076386;28;20227;-77
2022/07/24 03:45:50;;;;;;;16.65;10.10;;;;;;;-145.69;100.00;71444.19;5076237;28;20206;-77
2022/07/24 03:48:17;;;;;;;18.48;11.23;;;;;;;-145.69;100.00;71430.25;5076025;28;20203;-77
2022/07/24 03:50:43;;;;;;;17.75;10.38;;;;;;;-145.69;100.00;71422.28;5075790;28;20234;-77
2022/07/24 03:53:10;;;;;;;19.52;11.15;;;;;;;-145.69;100.00;71412.34;5075274;28;20430;-79
2022/07/24 03:55:37;;;;;;;17.20;10.55;;;;;;;-145.69;100.00;71414.34;5075976;28;20230;-76
2022/07/24 03:58:04;;;;;;;15.38;9.32;;;;;;;-145.69;100.00;71406.38;5075886;28;20210;-77
2022/07/24 04:00:30;;;;;;;17.08;9.45;;;;;;;-145.69;100.00;71414.34;5075903;28;20272;-77
2022/07/24 04:02:57;;;;;;;19.35;8.93;;;;;;;-145.69;100.00;71430.25;5075808;28;20205;-76
2022/07/24 04:05:23;;;;;;;15.10;9.15;;;;;;;-145.69;100.00;71438.22;5075353;28;20201;-76
2022/07/24 04:07:50;;;;;;;14.27;8.88;;;;;;;-145.69;100.00;71452.16;5075532;28;20203;-77
2022/07/24 04:10:16;;;;;;;15.52;9.73;;;;;;;-145.69;100.00;71456.13;5075664;28;20206;-77
2022/07/24 04:12:44;;;;;;;16.02;9.75;;;;;;;-145.69;100.00;71466.06;5075768;28;20216;-76
2022/07/24 04:15:11;;;;;;;17.05;9.60;;;;;;;-145.69;100.00;71466.06;5075820;28;20222;-77
2022/07/24 04:17:39;;;;;;;14.38;9.18;;;;;;;-145.69;100.00;71470.06;5075416;28;20684;-77
2022/07/24 04:20:07;;;;;;;18.58;10.07;;;;;;;-145.69;100.00;71466.06;5075470;28;20252;-77
2022/07/24 04:22:33;;;;;;;19.40;9.45;;;;;;;-145.69;100.00;71454.13;5075285;28;20657;-76
2022/07/24 04:25:00;;;;;;;14.65;10.18;;;;;;;-145.69;100.00;71446.16;5075510;28;20210;-77
2022/07/24 04:27:27;;;;;;;17.77;9.35;;;;;;;-145.69;100.00;71438.22;5075500;28;20195;-77
2022/07/24 04:29:55;;;;;;;14.88;9.70;;;;;;;-145.69;100.00;71434.22;5075410;28;20221;-77
2022/07/24 04:32:21;;;;;;;16.77;9.68;;;;;;;-145.69;100.00;71428.25;5075266;28;20199;-76
2022/07/24 04:34:47;;;;;;;14.07;9.43;;;;;;;-145.69;100.00;71422.28;5074844;28;20234;-77
2022/07/24 04:37:14;;;;;;;12.75;8.32;;;;;;;-145.69;100.00;71406.38;5075072;28;20199;-78
2022/07/24 04:39:40;;;;;;;12.10;8.57;;;;;;;-145.69;100.00;71402.41;5075154;28;20658;-77
2022/07/24 04:42:07;;;;;;;15.98;9.70;;;;;;;-145.69;100.00;71398.41;5062458;28;20562;-77
2022/07/24 04:44:33;;;;;;;13.15;8.82;;;;;;;-145.69;100.00;71386.47;5054858;28;20214;-77
2022/07/24 04:47:01;;;;;;;13.43;8.30;;;;;;;-145.69;100.00;71370.56;5054928;28;20203;-76
2022/07/24 04:49:28;;;;;;;14.18;8.43;;;;;;;-145.69;100.00;71364.59;5054587;28;20227;-77
2022/07/24 04:51:54;;;;;;;18.75;8.75;;;;;;;-145.69;100.00;71354.63;5055084;28;20566;-76
2022/07/24 04:54:21;;;;;;;10.80;7.95;;;;;;;-145.69;100.00;71350.66;5054681;28;20682;-77
2022/07/24 04:56:47;;;;;;;11.07;7.57;;;;;;;-145.69;100.00;71338.72;5054850;28;20204;-77
2022/07/24 04:59:13;;;;;;;11.38;7.38;;;;;;;-145.69;100.00;71330.75;5054721;28;20206;-77
2022/07/24 05:01:40;;;;;;;9.93;7.70;;;;;;;-145.69;100.00;71330.75;5054601;28;20199;-77
2022/07/24 05:04:08;;;;;;;11.65;8.25;;;;;;;-145.69;100.00;71322.81;5054407;28;20438;-76
2022/07/24 05:06:34;;;;;;;13.95;7.80;;;;;;;-145.69;100.00;71322.81;5073351;28;20217;-76
2022/07/24 05:09:01;;;;;;;10.23;7.32;;;;;;;-145.69;100.00;71310.84;5074447;28;20203;-77
2022/07/24 05:11:28;;;;;;;10.07;7.13;;;;;;;-145.69;100.00;71302.91;5074612;28;20573;-77
2022/07/24 05:13:54;;;;;;;11.63;7.22;;;;;;;-145.69;100.00;71294.94;5074413;28;20205;-77
2022/07/24 05:16:21;;;;;;;11.23;7.43;;;;;;;-145.69;100.00;71290.97;5074183;28;20230;-77
2022/07/24 05:18:47;;;;;;;9.77;6.72;;;;;;;-145.69;100.00;71279.03;5074206;28;20673;-76
2022/07/24 05:21:17;;;;;;;10.32;6.82;;;;;;;-145.69;100.00;71275.03;5074361;28;20195;-77
2022/07/24 05:23:44;;;;;;;10.15;6.82;;;;;;;-145.69;100.00;71259.13;5074512;28;20195;-77
2022/07/24 05:26:10;;;;;;;8.57;6.28;;;;;;;-145.69;100.00;71241.22;5074224;28;20564;-77
2022/07/24 05:28:37;;;;;;;12.68;7.43;;;;;;;-145.69;100.00;71237.25;5074030;28;20226;-77
2022/07/24 05:31:04;;;;;;;9.38;6.38;;;;;;;-145.69;100.00;71207.38;5073895;28;20680;-77
2022/07/24 05:33:32;;;;;;;8.55;6.70;;;;;;;-145.69;100.00;71159.63;5074084;28;20263;-77
2022/07/24 05:35:58;;;;;;;9.75;6.15;;;;;;;-145.69;100.00;71119.84;5073806;28;20233;-77
2022/07/24 05:38:27;;;;;;;8.98;6.32;;;;;;;-145.69;100.00;71070.09;5073859;28;20657;-77
2022/07/24 05:40:55;;;;;;;9.90;6.25;;;;;;;-145.69;100.00;71030.31;5072630;28;20466;-77
2022/07/24 05:43:21;;;;;;;8.40;5.75;;;;;;;-145.69;100.00;70948.72;5073860;28;20570;-77
2022/07/24 05:45:48;;;;;;;10.40;5.78;;;;;;;-145.69;100.00;70922.88;5073625;28;20198;-77
2022/07/24 05:48:17;;;;;;;7.85;5.25;;;;;;;-145.69;100.00;70871.13;5073708;28;20558;-77
2022/07/24 05:50:45;;;;;;;6.47;4.90;;;;;;;-145.69;93.65;70777.63;5073264;28;20237;-77
2022/07/24 05:53:11;;;;;;;6.50;5.05;;;;;;;-145.69;89.55;70737.84;5073755;28;20230;-77
2022/07/24 05:55:39;;;;;;;6.53;5.28;;;;;;;-145.69;88.58;70709.97;5072851;28;20226;-77
2022/07/24 05:58:05;;;;;;;9.95;5.53;;;;;;;-145.69;92.14;70753.75;5073443;28;20230;-77
2022/07/24 06:00:32;;;;;;;7.13;4.97;;;;;;;-145.69;93.49;70781.59;5073374;28;20685;-77
2022/07/24 06:02:59;;;;;;;6.88;5.00;;;;;;;-145.69;93.79;70819.41;5073608;28;20199;-77
2022/07/24 06:05:28;;;;;;;8.90;5.50;;;;;;;-145.69;95.74;70841.28;5072510;28;20873;-77
2022/07/24 06:07:54;;;;;;;7.25;4.78;;;;;;;-145.69;100.00;70879.09;5073337;28;20214;-76
2022/07/24 06:10:21;;;;;;;7.88;5.75;;;;;;;-145.69;99.22;70912.91;5073302;28;20231;-77
2022/07/24 06:12:49;;;;;;;7.10;5.13;;;;;;;-145.69;100.00;70920.88;5073194;28;20206;-76
2022/07/24 06:15:18;;;;;;;9.23;5.60;;;;;;;-145.69;100.00;70948.72;5073321;28;20230;-77
2022/07/24 06:17:47;;;;;;;7.95;5.35;;;;;;;-145.69;100.00;70946.75;5073335;28;20213;-77
2022/07/24 06:20:16;;;;;;;7.50;5.78;;;;;;;-145.69;100.00;70944.75;5073285;28;20206;-77
2022/07/24 06:22:44;;;;;;;8.63;5.75;;;;;;;-145.69;100.00;70928.84;5073116;28;20289;-77
2022/07/24 06:25:11;;;;;;;9.30;5.78;;;;;;;-145.69;99.14;70873.13;5072951;28;20253;-77
2022/07/24 06:27:41;;;;;;;7.72;5.55;;;;;;;-145.69;100.00;70877.09;5073017;28;20205;-77
2022/07/24 06:30:13;;;;;;;8.48;5.53;;;;;;;-145.69;98.45;70853.22;5072831;28;20206;-77
2022/07/24 06:32:39;;;;;;;9.35;5.63;;;;;;;-145.69;100.00;70869.16;5073146;28;20202;-77
2022/07/24 06:35:07;;;;;;;7.82;5.72;;;;;;;-145.69;100.00;70853.22;5072239;28;20218;-78
2022/07/24 06:37:34;;;;;;;7.75;5.32;;;;;;;-145.69;100.00;70859.19;5073111;28;20257;-77
2022/07/24 06:40:08;;;;;;;9.23;5.57;;;;;;;-145.69;100.00;70883.06;5072747;28;20199;-76
2022/07/24 06:42:34;;;;;;;9.23;5.55;;;;;;;-145.69;100.00;70891.03;5073104;28;20199;-77
2022/07/24 06:45:04;;;;;;;9.70;5.90;;;;;;;-145.69;100.00;70893.03;5063709;28;20685;-77
2022/07/24 06:47:32;;;;;;;7.32;5.75;;;;;;;-145.69;100.00;70904.97;5052883;28;20210;-77
2022/07/24 06:49:58;;;;;;;10.82;6.22;;;;;;;-145.69;100.00;70912.91;5052694;28;20231;-77
2022/07/24 06:52:25;;;;;;;8.63;6.47;;;;;;;-145.69;100.00;70900.97;5052680;28;20669;-77
2022/07/24 06:54:51;;;;;;;9.85;6.63;;;;;;;-145.69;100.00;70885.06;5052856;28;20222;-76
2022/07/24 06:57:18;;;;;;;14.07;7.10;;;;;;;-145.69;100.00;70853.22;5052915;28;20210;-77
2022/07/24 06:59:45;;;;;;;12.45;6.55;;;;;;;-145.69;95.37;70815.44;5052666;28;20203;-77
2022/07/24 07:02:11;;;;;;;9.05;6.22;;;;;;;-145.69;89.71;70759.72;5052731;28;20199;-77
2022/07/24 07:04:39;;;;;;;10.18;5.80;;;;;;;-145.69;85.13;70725.91;5059947;28;20194;-77
2022/07/24 07:07:06;;;;;;;8.60;5.82;;;;;;;-145.69;78.87;70713.97;5075769;28;20207;-77
2022/07/24 07:09:32;;;;;;;7.78;5.45;;;;;;;-145.69;79.06;70690.09;5076872;28;20203;-77
2022/07/24 07:11:58;;;;;;;8.38;5.70;;;;;;;-145.69;75.85;70692.06;5077011;28;20241;-77
2022/07/24 07:14:25;;;;;;;11.50;5.78;;;;;;;-145.69;74.91;70672.19;5076817;28;20198;-77
2022/07/24 07:16:51;;;;;;;8.43;4.90;;;;;;;-145.69;74.04;70638.34;5076764;28;20230;-78
2022/07/24 07:19:18;;;;;;;9.73;5.60;;;;;;;-145.69;72.41;70650.28;5076579;28;20206;-76
2022/07/24 07:21:45;;;;;;;7.97;5.30;;;;;;;-145.69;73.84;70606.53;5076519;28;20220;-75
2022/07/24 07:24:12;;;;;;;8.45;5.50;;;;;;;-145.69;72.44;70582.66;5076461;28;20689;-76
2022/07/24 07:26:38;;;;;;;9.85;5.65;;;;;;;-145.69;70.26;70542.88;5076693;28;20222;-75
2022/07/24 07:29:05;;;;;;;9.10;5.95;;;;;;;-145.69;68.32;70536.91;5076565;28;20209;-76
2022/07/24 07:31:31;;;;;;;9.95;5.40;;;;;;;-145.69;67.88;70564.75;5076295;28;20668;-76
2022/07/24 07:33:58;;;;;;;7.32;5.38;;;;;;;-145.69;67.41;70528.94;5076250;28;20550;-78
2022/07/24 07:36:24;;;;;;;9.00;5.47;;;;;;;-145.69;67.82;70530.94;5076205;28;20264;-78
2022/07/24 07:38:52;;;;;;;8.82;5.38;;;;;;;-145.69;71.06;70501.09;5076503;28;20202;-78
2022/07/24 07:41:19;;;;;;;8.05;5.47;;;;;;;-145.69;68.86;70542.88;5076319;28;20600;-78
2022/07/24 07:43:46;;;;;;;8.23;5.25;;;;;;;-145.69;69.34;70509.03;5076049;28;20689;-77
2022/07/24 07:46:13;;;;;;;7.70;5.22;;;;;;;-145.69;69.17;70467.28;5076028;28;20298;-78
2022/07/24 07:48:40;;;;;;;8.73;5.00;;;;;;;-145.69;65.36;70437.44;5075760;28;20218;-76
2022/07/24 07:51:06;;;;;;;7.47;5.15;;;;;;;-145.69;65.59;70431.47;5076163;28;20207;-77
2022/07/24 07:53:33;;;;;;;9.98;5.30;;;;;;;-145.69;64.80;70415.53;5075879;28;20205;-77
2022/07/24 07:56:01;;;;;;;9.80;6.00;;;;;;;-145.69;63.60;70403.59;5075547;28;20218;-77
2022/07/24 07:58:28;;;;;;;9.00;6.25;;;;;;;-145.69;64.99;70407.59;5075959;28;20293;-77
2022/07/24 08:00:55;;;;;;;8.35;6.25;;;;;;;-145.69;64.59;70391.66;5075590;28;20209;-77
2022/07/24 08:03:21;;;;;;;8.40;5.97;;;;;;;-145.69;63.74;70395.66;5075472;28;20668;-77
2022/07/24 08:05:47;;;;;;;7.57;5.72;;;;;;;-145.69;66.24;70403.59;5075607;28;20673;-78
2022/07/24 08:08:14;;;;;;;9.38;6.20;;;;;;;-145.69;63.66;70393.66;5075177;28;20561;-77
2022/07/24 08:10:40;;;;;;;8.98;6.05;;;;;;;-145.69;64.41;70383.72;5075742;28;20195;-77
2022/07/24 08:13:08;;;;;;;10.10;6.03;;;;;;;-145.69;62.89;70401.63;5075671;28;20203;-77
2022/07/24 08:15:36;;;;;;;8.90;6.07;;;;;;;-145.69;62.17;70355.88;5075393;28;20227;-76
2022/07/24 08:18:03;;;;;;;10.80;6.05;;;;;;;-145.69;61.69;70343.94;5074824;28;20206;-76
2022/07/24 08:20:29;;;;;;;10.18;6.45;;;;;;;-145.69;61.17;70330.00;5075441;28;20653;-77
2022/07/24 08:22:56;;;;;;;8.45;5.18;;;;;;;-145.69;62.01;70351.88;5075566;28;20292;-77
2022/07/24 08:25:22;;;;;;;7.68;5.47;;;;;;;-145.69;60.64;70335.97;5075505;28;20207;-77
2022/07/24 08:27:49;;;;;;;12.48;5.65;;;;;;;-145.69;61.92;70353.88;5075376;28;20679;-77
2022/07/24 08:30:19;;;;;;;9.13;6.50;;;;;;;-145.69;63.20;70403.59;5074944;28;20203;-77
2022/07/24 08:32:48;;;;;;;8.68;5.72;;;;;;;-145.69;61.83;70383.72;5074749;28;20199;-77
2022/07/24 08:35:16;;;;;;;10.30;6.32;;;;;;;-145.69;60.97;70363.81;5075336;28;20202;-77
2022/07/24 08:37:42;;;;;;;9.02;5.93;;;;;;;-145.69;60.84;70339.94;5075057;28;20207;-77
2022/07/24 08:40:11;;;;;;;9.48;5.90;;;;;;;-145.69;59.43;70320.06;5075127;28;20195;-77
2022/07/24 08:42:38;;;;;;;8.90;6.20;;;;;;;-145.69;58.56;70300.16;5060294;28;20203;-77
2022/07/24 08:45:05;;;;;;;8.20;6.28;;;;;;;-145.69;63.48;70280.28;5054881;28;20210;-77
2022/07/24 08:47:33;;;;;;;8.95;6.15;;;;;;;-145.69;60.42;70244.47;5055114;28;20617;-77
2022/07/24 08:50:01;;;;;;;7.95;5.20;;;;;;;-145.69;61.67;70206.66;5054795;28;20244;-77
2022/07/24 08:52:28;;;;;;;7.40;5.60;;;;;;;-145.69;55.59;70196.72;5054879;28;20206;-77
2022/07/24 08:54:55;;;;;;;7.95;5.45;;;;;;;-145.69;56.45;70236.50;5054831;28;20210;-77
2022/07/24 08:57:22;;;;;;;10.35;5.40;;;;;;;-145.69;55.66;70256.41;5054553;28;20242;-77
2022/07/24 08:59:48;;;;;;;7.00;5.18;;;;;;;-145.69;58.86;70264.34;5054822;28;20207;-77
2022/07/24 09:02:15;;;;;;;7.45;5.85;;;;;;;-145.69;58.83;70268.34;5074444;28;20748;-77
2022/07/24 09:04:45;;;;;;;7.55;6.03;;;;;;;-145.69;60.69;70284.25;5074414;28;20195;-77
2022/07/24 09:07:13;;;;;;;8.60;5.93;;;;;;;-145.69;58.03;70302.16;5074574;28;20198;-77
2022/07/24 09:09:41;;;;;;;7.72;5.82;;;;;;;-145.69;60.08;70260.38;5074449;28;20256;-77
2022/07/24 09:12:12;;;;;;;7.07;5.50;;;;;;;-145.69;55.75;70228.53;5074415;28;20213;-77
2022/07/24 09:14:41;;;;;;;9.45;6.03;;;;;;;-145.69;64.25;70176.81;5074569;28;20198;-77
2022/07/24 09:17:10;;;;;;;9.48;6.10;;;;;;;-145.69;54.31;70150.97;5073311;28;20465;-76
2022/07/24 09:19:49;;;;;;;8.05;5.60;;;;;;;-145.69;54.51;70160.91;5072082;28;20206;-77
2022/07/24 09:22:28;;;;;;;7.18;5.43;;;;;;;-145.69;58.11;70176.81;5073407;28;20199;-78
2022/07/24 09:25:11;;;;;;;8.40;5.80;;;;;;;-145.69;53.17;70145.00;5073685;28;20681;-78
2022/07/24 09:27:40;;;;;;;8.57;5.70;;;;;;;-145.69;53.97;70125.09;5073935;28;20211;-78
2022/07/24 09:30:08;;;;;;;12.32;5.85;;;;;;;-145.69;54.63;70083.34;5071381;28;20198;-78
2022/07/24 09:32:36;;;;;;;7.00;4.85;;;;;;;-145.69;50.62;70051.50;5055383;28;20195;-77
2022/07/24 09:35:05;;;;;;;7.18;5.05;;;;;;;-145.69;50.77;70057.47;5053198;28;20302;-77
2022/07/24 09:37:33;;;;;;;7.10;5.10;;;;;;;-145.69;46.49;70091.28;5053166;28;20594;-75
2022/07/24 09:40:08;;;;;;;6.13;4.75;;;;;;;-145.69;45.86;70087.31;5053776;28;20674;-75
2022/07/24 09:42:38;;;;;;;8.95;5.07;;;;;;;-145.69;47.22;70097.25;5053855;28;20202;-78
2022/07/24 09:45:10;;;;;;;6.32;4.95;;;;;;;-145.69;47.96;70095.28;5053798;28;20208;-78
2022/07/24 09:47:40;;;;;;;6.25;4.68;;;;;;;-145.69;47.02;70097.25;5053699;28;20628;-78
2022/07/24 09:50:18;;;;;;;9.25;4.97;;;;;;;-145.69;48.20;70073.38;5053624;28;20258;-77
2022/07/24 09:52:46;;;;;;;6.85;4.43;;;;;;;-145.69;43.69;70091.28;5053695;28;20214;-78
2022/07/24 09:55:26;;;;;;;5.95;4.07;;;;;;;-145.69;43.53;70009.72;5053238;28;20203;-76
2022/07/24 09:57:53;;;;;;;8.18;4.50;;;;;;;-145.69;40.85;69993.81;5053287;28;20231;-77
2022/07/24 10:00:20;;;;;;;10.10;4.70;;;;;;;-145.69;43.37;70013.72;5059217;28;20199;-77
2022/07/24 10:02:47;;;;;;;8.52;5.07;;;;;;;-145.69;42.36;70021.66;5073182;28;20791;-76
2022/07/24 10:05:17;;;;;;;7.47;5.10;;;;;;;-145.69;45.66;70079.34;5072250;28;20657;-77
2022/07/24 10:07:48;;;;;;;8.70;5.43;;;;;;;-145.69;47.36;70111.19;5072152;28;20206;-77
2022/07/24 10:10:15;;;;;;;7.93;4.93;;;;;;;-145.69;47.78;70119.13;5072484;28;20858;-77
2022/07/24 10:12:41;;;;;;;7.43;5.10;;;;;;;-145.69;49.51;70129.09;5071665;28;20203;-77
2022/07/24 10:15:09;;;;;;;8.20;5.05;;;;;;;-145.69;47.29;70101.25;5073009;28;20207;-77
2022/07/24 10:18:14;;;;;;;8.13;5.70;;;;;;;-145.69;47.06;70099.25;5073260;28;20299;-81
2022/07/24 10:20:46;;;;;;;8.55;5.22;;;;;;;-145.69;48.50;70131.06;5066520;28;20198;-77
2022/07/24 10:23:24;;;;;;;8.10;5.10;;;;;;;-145.69;47.17;70160.91;5073039;28;20646;-77
2022/07/24 10:25:57;;;;;;;7.38;5.00;;;;;;;-145.69;49.20;70180.81;5073027;28;20252;-77
2022/07/24 10:28:40;;;;;;;12.02;5.57;;;;;;;-145.69;49.86;70147.00;5073220;28;20194;-75
2022/07/24 10:31:11;;;;;;;6.38;5.20;;;;;;;-145.69;47.17;70105.22;5071637;28;20201;-77
2022/07/24 10:33:39;;;;;;;7.03;4.78;;;;;;;-145.69;45.69;70085.31;5073101;28;20202;-76
2022/07/24 10:36:17;;;;;;;6.95;4.90;;;;;;;-145.69;47.32;70089.31;5072945;28;20199;-77
2022/07/24 10:38:51;;;;;;;8.95;5.28;;;;;;;-145.69;45.21;70005.75;5073080;28;20277;-78
2022/07/24 10:41:24;;;;;;;6.32;4.97;;;;;;;-145.69;43.89;69960.00;5055466;28;20206;-77
2022/07/24 10:44:14;;;;;;;8.38;5.13;;;;;;;-145.69;43.73;69973.94;5053048;28;20183;-77
2022/07/24 10:46:58;;;;;;;7.03;4.82;;;;;;;-145.69;44.83;69892.38;5052965;28;20203;-77
2022/07/24 10:49:46;;;;;;;7.80;5.28;;;;;;;-145.69;42.84;69838.66;5052661;28;20231;-76
2022/07/24 10:52:27;;;;;;;7.43;4.75;;;;;;;-145.69;43.00;69824.75;5053006;28;20203;-76
2022/07/24 10:55:22;;;;;;;7.60;4.95;;;;;;;-145.69;42.38;69834.69;5052872;28;20199;-77
2022/07/24 10:57:56;;;;;;;6.65;4.68;;;;;;;-145.69;42.22;69946.09;5052558;28;20723;-77
2022/07/24 11:00:31;;;;;;;6.53;5.00;;;;;;;-145.69;43.14;69888.41;5061024;28;20245;-77
2022/07/24 11:03:00;;;;;;;7.65;4.60;;;;;;;-145.69;43.10;69822.75;5052803;28;20199;-78
2022/07/24 11:05:31;;;;;;;5.80;4.82;;;;;;;-145.69;43.91;69830.72;5051140;28;20226;-79
2022/07/24 11:08:38;;;;;;;6.07;4.70;;;;;;;-145.69;47.61;69759.09;5049667;28;20723;-78
2022/07/24 11:11:12;;;;;;;8.02;4.90;;;;;;;-145.69;42.76;69775.00;5050847;28;20676;-78